Grundy, Virginia
Current Conditions -  °F | °C
As of 8:15 PM on Tuesday 27 Jan 2015 (Local Time) from KJFZ Reporting Station
Clear Clear  
Wind Chill: -12°   Ceiling: Unl
Heat Index: -5°   Visibility: 10mi
Dew Point: -15°   Wind: 13mph
Humidity: 46%   Direction: 330°NNW
Pressure: 29.98"   Gusts: 16mph
Location:  37.28°N, 82.1°W
Report Text: KJFZ 280115Z AUTO 33011G14KT 10SM CLR M05/M15 A2998 RMK AO2 T10521151
Loading
Personal Weather Stations






























Interactive Weather Map New forecast layout! Learn more

10-Day Weather Forecast

Advertisements
Track Severe Weather on mobile